sensor_id;sensor_type;location;lat;lon;timestamp;P1;durP1;ratioP1;P2;durP2;ratioP2
20014;SDS011;61787;42.022;23.078;2022-12-11T00:00:28;8.87;;;3.10;;
20014;SDS011;61787;42.022;23.078;2022-12-11T00:01:29;10.87;;;3.90;;
20014;SDS011;61787;42.022;23.078;2022-12-11T00:02:31;16.60;;;4.00;;
20014;SDS011;61787;42.022;23.078;2022-12-11T00:03:33;10.67;;;3.67;;
20014;SDS011;61787;42.022;23.078;2022-12-11T00:04:34;14.17;;;3.90;;
20014;SDS011;61787;42.022;23.078;2022-12-11T00:05:38;13.83;;;4.17;;
20014;SDS011;61787;42.022;23.078;2022-12-11T00:06:40;17.80;;;3.77;;
20014;SDS011;61787;42.022;23.078;2022-12-11T00:07:42;12.03;;;4.03;;
20014;SDS011;61787;42.022;23.078;2022-12-11T00:08:44;13.93;;;3.60;;
20014;SDS011;61787;42.022;23.078;2022-12-11T00:09:46;18.00;;;4.77;;
20014;SDS011;61787;42.022;23.078;2022-12-11T00:10:48;17.60;;;4.13;;
20014;SDS011;61787;42.022;23.078;2022-12-11T00:11:50;14.83;;;4.57;;
20014;SDS011;61787;42.022;23.078;2022-12-11T00:12:52;13.33;;;4.67;;
20014;SDS011;61787;42.022;23.078;2022-12-11T00:13:53;12.83;;;3.80;;
20014;SDS011;61787;42.022;23.078;2022-12-11T00:14:55;17.27;;;4.53;;
20014;SDS011;61787;42.022;23.078;2022-12-11T00:15:57;18.53;;;4.73;;
20014;SDS011;61787;42.022;23.078;2022-12-11T00:16:58;12.77;;;4.67;;
20014;SDS011;61787;42.022;23.078;2022-12-11T00:18:00;16.17;;;4.50;;
20014;SDS011;61787;42.022;23.078;2022-12-11T00:19:02;22.13;;;4.63;;
20014;SDS011;61787;42.022;23.078;2022-12-11T00:20:04;15.70;;;4.23;;
20014;SDS011;61787;42.022;23.078;2022-12-11T00:21:07;13.07;;;3.80;;
20014;SDS011;61787;42.022;23.078;2022-12-11T00:22:11;15.67;;;4.00;;
20014;SDS011;61787;42.022;23.078;2022-12-11T00:23:12;19.77;;;4.13;;
20014;SDS011;61787;42.022;23.078;2022-12-11T00:24:14;17.20;;;3.83;;
20014;SDS011;61787;42.022;23.078;2022-12-11T00:25:16;13.43;;;4.20;;
20014;SDS011;61787;42.022;23.078;2022-12-11T00:26:17;17.13;;;3.50;;
20014;SDS011;61787;42.022;23.078;2022-12-11T00:27:19;14.07;;;4.17;;
20014;SDS011;61787;42.022;23.078;2022-12-11T00:28:20;23.13;;;4.13;;
20014;SDS011;61787;42.022;23.078;2022-12-11T00:29:22;13.13;;;4.13;;
20014;SDS011;61787;42.022;23.078;2022-12-11T00:30:24;20.40;;;4.20;;
20014;SDS011;61787;42.022;23.078;2022-12-11T00:31:25;16.33;;;4.23;;
20014;SDS011;61787;42.022;23.078;2022-12-11T00:32:27;12.63;;;3.97;;
20014;SDS011;61787;42.022;23.078;2022-12-11T00:33:32;12.17;;;3.60;;
20014;SDS011;61787;42.022;23.078;2022-12-11T00:34:34;19.33;;;4.17;;
20014;SDS011;61787;42.022;23.078;2022-12-11T00:35:42;12.67;;;3.47;;
20014;SDS011;61787;42.022;23.078;2022-12-11T00:36:46;11.40;;;3.87;;
20014;SDS011;61787;42.022;23.078;2022-12-11T00:37:48;16.03;;;3.73;;
20014;SDS011;61787;42.022;23.078;2022-12-11T00:38:50;14.03;;;3.10;;
20014;SDS011;61787;42.022;23.078;2022-12-11T00:39:53;12.67;;;3.80;;
20014;SDS011;61787;42.022;23.078;2022-12-11T00:40:57;16.30;;;3.60;;
20014;SDS011;61787;42.022;23.078;2022-12-11T00:42:00;13.63;;;3.57;;
20014;SDS011;61787;42.022;23.078;2022-12-11T00:43:01;12.73;;;3.23;;
20014;SDS011;61787;42.022;23.078;2022-12-11T00:44:03;10.43;;;3.63;;
20014;SDS011;61787;42.022;23.078;2022-12-11T00:45:06;13.53;;;3.77;;
20014;SDS011;61787;42.022;23.078;2022-12-11T00:46:08;9.60;;;3.07;;
20014;SDS011;61787;42.022;23.078;2022-12-11T00:47:10;16.37;;;3.30;;
20014;SDS011;61787;42.022;23.078;2022-12-11T00:48:12;9.00;;;3.17;;
20014;SDS011;61787;42.022;23.078;2022-12-11T00:49:14;13.70;;;3.23;;
20014;SDS011;61787;42.022;23.078;2022-12-11T00:50:17;15.13;;;3.57;;
20014;SDS011;61787;42.022;23.078;2022-12-11T00:51:18;11.33;;;2.73;;
20014;SDS011;61787;42.022;23.078;2022-12-11T00:52:20;14.07;;;3.47;;
20014;SDS011;61787;42.022;23.078;2022-12-11T00:53:22;9.80;;;2.97;;
20014;SDS011;61787;42.022;23.078;2022-12-11T00:54:24;9.70;;;2.43;;
20014;SDS011;61787;42.022;23.078;2022-12-11T00:55:25;9.70;;;2.53;;
20014;SDS011;61787;42.022;23.078;2022-12-11T00:56:28;8.87;;;2.80;;
20014;SDS011;61787;42.022;23.078;2022-12-11T00:57:30;12.37;;;2.27;;
20014;SDS011;61787;42.022;23.078;2022-12-11T00:58:31;8.43;;;2.97;;
20014;SDS011;61787;42.022;23.078;2022-12-11T00:59:33;11.87;;;3.10;;
20014;SDS011;61787;42.022;23.078;2022-12-11T01:00:35;7.63;;;2.30;;
20014;SDS011;61787;42.022;23.078;2022-12-11T01:01:37;14.33;;;3.43;;
20014;SDS011;61787;42.022;23.078;2022-12-11T01:02:39;8.93;;;2.23;;
20014;SDS011;61787;42.022;23.078;2022-12-11T01:03:41;9.17;;;2.33;;
20014;SDS011;61787;42.022;23.078;2022-12-11T01:04:42;9.60;;;2.07;;
20014;SDS011;61787;42.022;23.078;2022-12-11T01:05:51;6.00;;;2.13;;
20014;SDS011;61787;42.022;23.078;2022-12-11T01:06:54;7.67;;;1.97;;
20014;SDS011;61787;42.022;23.078;2022-12-11T01:07:55;6.20;;;1.47;;
20014;SDS011;61787;42.022;23.078;2022-12-11T01:08:57;3.77;;;1.57;;
20014;SDS011;61787;42.022;23.078;2022-12-11T01:10:17;4.73;;;1.43;;
20014;SDS011;61787;42.022;23.078;2022-12-11T01:11:25;6.67;;;1.70;;
20014;SDS011;61787;42.022;23.078;2022-12-11T01:12:27;4.03;;;1.50;;
20014;SDS011;61787;42.022;23.078;2022-12-11T01:13:28;2.77;;;1.13;;
20014;SDS011;61787;42.022;23.078;2022-12-11T01:14:30;4.60;;;1.50;;
20014;SDS011;61787;42.022;23.078;2022-12-11T01:15:34;6.13;;;1.43;;
20014;SDS011;61787;42.022;23.078;2022-12-11T01:16:42;3.57;;;1.40;;
20014;SDS011;61787;42.022;23.078;2022-12-11T01:17:43;5.40;;;1.50;;
20014;SDS011;61787;42.022;23.078;2022-12-11T01:18:45;9.27;;;1.50;;
20014;SDS011;61787;42.022;23.078;2022-12-11T01:19:47;7.27;;;0.93;;
20014;SDS011;61787;42.022;23.078;2022-12-11T01:20:48;3.17;;;1.40;;
20014;SDS011;61787;42.022;23.078;2022-12-11T01:21:50;5.63;;;1.43;;
20014;SDS011;61787;42.022;23.078;2022-12-11T01:22:52;6.93;;;2.10;;
20014;SDS011;61787;42.022;23.078;2022-12-11T01:23:54;5.43;;;2.00;;
20014;SDS011;61787;42.022;23.078;2022-12-11T01:24:56;5.70;;;1.60;;
20014;SDS011;61787;42.022;23.078;2022-12-11T01:26:03;6.53;;;1.47;;
20014;SDS011;61787;42.022;23.078;2022-12-11T01:27:09;10.43;;;1.63;;
20014;SDS011;61787;42.022;23.078;2022-12-11T01:28:10;6.33;;;2.20;;
20014;SDS011;61787;42.022;23.078;2022-12-11T01:29:12;7.17;;;1.57;;
20014;SDS011;61787;42.022;23.078;2022-12-11T01:30:13;9.03;;;1.67;;
20014;SDS011;61787;42.022;23.078;2022-12-11T01:31:15;10.40;;;2.13;;
20014;SDS011;61787;42.022;23.078;2022-12-11T01:32:18;12.20;;;2.50;;
20014;SDS011;61787;42.022;23.078;2022-12-11T01:33:20;8.67;;;2.00;;
20014;SDS011;61787;42.022;23.078;2022-12-11T01:34:22;13.67;;;2.27;;
20014;SDS011;61787;42.022;23.078;2022-12-11T01:35:23;11.63;;;2.30;;
20014;SDS011;61787;42.022;23.078;2022-12-11T01:36:25;5.67;;;1.70;;
20014;SDS011;61787;42.022;23.078;2022-12-11T01:37:26;5.90;;;1.60;;
20014;SDS011;61787;42.022;23.078;2022-12-11T01:38:28;7.47;;;1.70;;
20014;SDS011;61787;42.022;23.078;2022-12-11T01:39:29;6.40;;;1.30;;
20014;SDS011;61787;42.022;23.078;2022-12-11T01:40:31;4.87;;;1.60;;
20014;SDS011;61787;42.022;23.078;2022-12-11T01:41:33;7.93;;;1.37;;
20014;SDS011;61787;42.022;23.078;2022-12-11T01:42:34;7.00;;;1.30;;
20014;SDS011;61787;42.022;23.078;2022-12-11T01:46:30;5.83;;;2.17;;
20014;SDS011;61787;42.022;23.078;2022-12-11T01:47:33;7.80;;;1.57;;
20014;SDS011;61787;42.022;23.078;2022-12-11T01:48:34;6.13;;;1.70;;
20014;SDS011;61787;42.022;23.078;2022-12-11T01:49:42;9.07;;;2.43;;
20014;SDS011;61787;42.022;23.078;2022-12-11T01:50:46;7.00;;;2.07;;
20014;SDS011;61787;42.022;23.078;2022-12-11T01:51:54;7.53;;;1.70;;
20014;SDS011;61787;42.022;23.078;2022-12-11T01:52:59;9.07;;;1.87;;
20014;SDS011;61787;42.022;23.078;2022-12-11T01:54:03;6.37;;;1.67;;
20014;SDS011;61787;42.022;23.078;2022-12-11T01:55:09;4.37;;;1.40;;
20014;SDS011;61787;42.022;23.078;2022-12-11T01:56:11;4.03;;;1.30;;
20014;SDS011;61787;42.022;23.078;2022-12-11T01:57:13;6.10;;;1.40;;
20014;SDS011;61787;42.022;23.078;2022-12-11T01:58:16;4.40;;;1.30;;
20014;SDS011;61787;42.022;23.078;2022-12-11T01:59:21;5.03;;;1.47;;
20014;SDS011;61787;42.022;23.078;2022-12-11T02:00:27;4.83;;;1.70;;
20014;SDS011;61787;42.022;23.078;2022-12-11T02:01:34;5.63;;;1.77;;
20014;SDS011;61787;42.022;23.078;2022-12-11T02:02:40;6.17;;;1.30;;
20014;SDS011;61787;42.022;23.078;2022-12-11T02:03:42;5.90;;;1.60;;
20014;SDS011;61787;42.022;23.078;2022-12-11T02:04:44;7.17;;;1.47;;
20014;SDS011;61787;42.022;23.078;2022-12-11T02:05:46;3.60;;;1.50;;
20014;SDS011;61787;42.022;23.078;2022-12-11T02:06:48;6.67;;;1.77;;
20014;SDS011;61787;42.022;23.078;2022-12-11T02:07:53;6.00;;;1.60;;
20014;SDS011;61787;42.022;23.078;2022-12-11T02:08:58;3.73;;;1.50;;
20014;SDS011;61787;42.022;23.078;2022-12-11T02:10:01;4.53;;;1.60;;
20014;SDS011;61787;42.022;23.078;2022-12-11T02:11:10;6.03;;;1.50;;
20014;SDS011;61787;42.022;23.078;2022-12-11T02:13:48;4.47;;;1.40;;
20014;SDS011;61787;42.022;23.078;2022-12-11T02:16:25;7.93;;;2.03;;
20014;SDS011;61787;42.022;23.078;2022-12-11T02:20:39;6.77;;;1.67;;
20014;SDS011;61787;42.022;23.078;2022-12-11T02:21:46;6.57;;;1.73;;
20014;SDS011;61787;42.022;23.078;2022-12-11T02:24:06;5.40;;;1.63;;
20014;SDS011;61787;42.022;23.078;2022-12-11T02:25:31;6.63;;;1.80;;
20014;SDS011;61787;42.022;23.078;2022-12-11T02:29:50;8.03;;;1.90;;
20014;SDS011;61787;42.022;23.078;2022-12-11T02:31:04;4.37;;;1.70;;
20014;SDS011;61787;42.022;23.078;2022-12-11T02:32:15;4.70;;;1.97;;
20014;SDS011;61787;42.022;23.078;2022-12-11T02:33:23;6.13;;;1.93;;
20014;SDS011;61787;42.022;23.078;2022-12-11T02:34:43;6.00;;;2.00;;
20014;SDS011;61787;42.022;23.078;2022-12-11T02:36:04;8.17;;;2.27;;
20014;SDS011;61787;42.022;23.078;2022-12-11T02:37:10;8.97;;;2.27;;
20014;SDS011;61787;42.022;23.078;2022-12-11T02:38:27;10.30;;;2.70;;
20014;SDS011;61787;42.022;23.078;2022-12-11T02:39:32;11.60;;;2.80;;
20014;SDS011;61787;42.022;23.078;2022-12-11T02:40:38;8.33;;;2.40;;
20014;SDS011;61787;42.022;23.078;2022-12-11T02:41:43;9.70;;;2.33;;
20014;SDS011;61787;42.022;23.078;2022-12-11T02:42:49;10.37;;;2.97;;
20014;SDS011;61787;42.022;23.078;2022-12-11T02:43:52;8.30;;;3.07;;
20014;SDS011;61787;42.022;23.078;2022-12-11T02:44:57;9.73;;;2.63;;
20014;SDS011;61787;42.022;23.078;2022-12-11T02:46:02;14.03;;;3.23;;
20014;SDS011;61787;42.022;23.078;2022-12-11T02:47:10;11.93;;;3.00;;
20014;SDS011;61787;42.022;23.078;2022-12-11T02:48:13;9.63;;;3.13;;
20014;SDS011;61787;42.022;23.078;2022-12-11T02:49:17;9.70;;;2.93;;
20014;SDS011;61787;42.022;23.078;2022-12-11T02:50:21;14.80;;;3.07;;
20014;SDS011;61787;42.022;23.078;2022-12-11T02:51:25;13.27;;;3.03;;
20014;SDS011;61787;42.022;23.078;2022-12-11T02:52:31;16.97;;;3.40;;
20014;SDS011;61787;42.022;23.078;2022-12-11T02:53:36;11.77;;;3.40;;
20014;SDS011;61787;42.022;23.078;2022-12-11T02:54:40;16.10;;;3.50;;
20014;SDS011;61787;42.022;23.078;2022-12-11T02:55:43;14.67;;;3.73;;
20014;SDS011;61787;42.022;23.078;2022-12-11T02:58:23;15.23;;;3.23;;
20014;SDS011;61787;42.022;23.078;2022-12-11T02:59:30;8.63;;;2.57;;
20014;SDS011;61787;42.022;23.078;2022-12-11T03:00:35;17.03;;;3.47;;
20014;SDS011;61787;42.022;23.078;2022-12-11T03:01:37;13.03;;;2.97;;
20014;SDS011;61787;42.022;23.078;2022-12-11T03:02:39;14.53;;;3.17;;
20014;SDS011;61787;42.022;23.078;2022-12-11T03:03:41;8.87;;;2.97;;
20014;SDS011;61787;42.022;23.078;2022-12-11T03:04:43;14.07;;;3.83;;
20014;SDS011;61787;42.022;23.078;2022-12-11T03:05:46;10.53;;;3.37;;
20014;SDS011;61787;42.022;23.078;2022-12-11T03:06:48;11.40;;;3.30;;
20014;SDS011;61787;42.022;23.078;2022-12-11T03:07:53;13.87;;;3.53;;
20014;SDS011;61787;42.022;23.078;2022-12-11T03:08:55;13.43;;;3.40;;
20014;SDS011;61787;42.022;23.078;2022-12-11T03:09:56;17.37;;;3.53;;
20014;SDS011;61787;42.022;23.078;2022-12-11T03:10:58;15.40;;;3.57;;
20014;SDS011;61787;42.022;23.078;2022-12-11T03:12:00;10.20;;;3.07;;
20014;SDS011;61787;42.022;23.078;2022-12-11T03:13:02;12.80;;;3.20;;
20014;SDS011;61787;42.022;23.078;2022-12-11T03:14:04;7.97;;;1.87;;
20014;SDS011;61787;42.022;23.078;2022-12-11T03:15:10;12.57;;;2.80;;
20014;SDS011;61787;42.022;23.078;2022-12-11T03:17:27;16.07;;;3.50;;
20014;SDS011;61787;42.022;23.078;2022-12-11T03:21:13;19.63;;;4.13;;
20014;SDS011;61787;42.022;23.078;2022-12-11T03:22:24;13.97;;;3.07;;
20014;SDS011;61787;42.022;23.078;2022-12-11T03:24:52;14.57;;;3.27;;
20014;SDS011;61787;42.022;23.078;2022-12-11T03:26:02;13.10;;;3.50;;
20014;SDS011;61787;42.022;23.078;2022-12-11T03:27:09;14.47;;;3.33;;
20014;SDS011;61787;42.022;23.078;2022-12-11T03:28:18;11.23;;;3.20;;
20014;SDS011;61787;42.022;23.078;2022-12-11T03:29:30;14.97;;;3.17;;
20014;SDS011;61787;42.022;23.078;2022-12-11T03:30:37;13.33;;;3.23;;
20014;SDS011;61787;42.022;23.078;2022-12-11T03:31:49;8.50;;;2.70;;
20014;SDS011;61787;42.022;23.078;2022-12-11T03:33:16;11.20;;;3.43;;
20014;SDS011;61787;42.022;23.078;2022-12-11T03:34:30;11.20;;;2.90;;
20014;SDS011;61787;42.022;23.078;2022-12-11T03:35:48;12.17;;;3.50;;
20014;SDS011;61787;42.022;23.078;2022-12-11T03:36:54;17.63;;;3.40;;
20014;SDS011;61787;42.022;23.078;2022-12-11T03:37:59;14.03;;;3.53;;
20014;SDS011;61787;42.022;23.078;2022-12-11T03:39:09;13.33;;;3.10;;
20014;SDS011;61787;42.022;23.078;2022-12-11T03:40:19;13.60;;;3.13;;
20014;SDS011;61787;42.022;23.078;2022-12-11T03:41:23;12.97;;;2.90;;
20014;SDS011;61787;42.022;23.078;2022-12-11T03:42:27;17.27;;;3.30;;
20014;SDS011;61787;42.022;23.078;2022-12-11T03:43:29;11.80;;;3.60;;
20014;SDS011;61787;42.022;23.078;2022-12-11T03:44:32;9.63;;;3.33;;
20014;SDS011;61787;42.022;23.078;2022-12-11T03:45:36;13.67;;;3.17;;
20014;SDS011;61787;42.022;23.078;2022-12-11T03:46:40;11.90;;;2.80;;
20014;SDS011;61787;42.022;23.078;2022-12-11T03:47:45;13.27;;;3.40;;
20014;SDS011;61787;42.022;23.078;2022-12-11T03:48:48;13.17;;;3.57;;
20014;SDS011;61787;42.022;23.078;2022-12-11T03:49:50;17.87;;;3.67;;
20014;SDS011;61787;42.022;23.078;2022-12-11T03:50:52;11.63;;;2.80;;
20014;SDS011;61787;42.022;23.078;2022-12-11T03:51:55;7.97;;;2.77;;
20014;SDS011;61787;42.022;23.078;2022-12-11T03:53:00;11.10;;;2.57;;
20014;SDS011;61787;42.022;23.078;2022-12-11T03:54:03;12.77;;;3.00;;
20014;SDS011;61787;42.022;23.078;2022-12-11T03:55:06;13.60;;;3.03;;
20014;SDS011;61787;42.022;23.078;2022-12-11T03:56:09;12.50;;;3.40;;
20014;SDS011;61787;42.022;23.078;2022-12-11T03:57:15;14.77;;;3.60;;
20014;SDS011;61787;42.022;23.078;2022-12-11T03:58:20;13.20;;;3.27;;
20014;SDS011;61787;42.022;23.078;2022-12-11T03:59:22;14.73;;;3.67;;
20014;SDS011;61787;42.022;23.078;2022-12-11T04:00:24;13.93;;;3.37;;
20014;SDS011;61787;42.022;23.078;2022-12-11T04:01:26;13.33;;;3.47;;
20014;SDS011;61787;42.022;23.078;2022-12-11T04:02:27;14.23;;;3.50;;
20014;SDS011;61787;42.022;23.078;2022-12-11T04:03:29;12.17;;;3.70;;
20014;SDS011;61787;42.022;23.078;2022-12-11T04:04:30;12.73;;;3.20;;
20014;SDS011;61787;42.022;23.078;2022-12-11T04:05:32;11.70;;;2.90;;
20014;SDS011;61787;42.022;23.078;2022-12-11T04:06:34;24.47;;;3.23;;
20014;SDS011;61787;42.022;23.078;2022-12-11T04:07:35;15.27;;;3.43;;
20014;SDS011;61787;42.022;23.078;2022-12-11T04:08:37;13.53;;;3.43;;
20014;SDS011;61787;42.022;23.078;2022-12-11T04:09:39;13.03;;;2.93;;
20014;SDS011;61787;42.022;23.078;2022-12-11T04:10:41;15.23;;;3.13;;
20014;SDS011;61787;42.022;23.078;2022-12-11T04:11:42;11.33;;;3.40;;
20014;SDS011;61787;42.022;23.078;2022-12-11T04:12:44;11.60;;;2.77;;
20014;SDS011;61787;42.022;23.078;2022-12-11T04:13:45;13.13;;;2.73;;
20014;SDS011;61787;42.022;23.078;2022-12-11T04:15:07;12.67;;;2.63;;
20014;SDS011;61787;42.022;23.078;2022-12-11T04:16:09;10.47;;;2.40;;
20014;SDS011;61787;42.022;23.078;2022-12-11T04:17:11;11.30;;;2.60;;
20014;SDS011;61787;42.022;23.078;2022-12-11T04:18:33;13.90;;;3.33;;
20014;SDS011;61787;42.022;23.078;2022-12-11T04:19:54;11.77;;;2.70;;
20014;SDS011;61787;42.022;23.078;2022-12-11T04:21:14;11.83;;;2.70;;
20014;SDS011;61787;42.022;23.078;2022-12-11T04:22:39;14.07;;;3.13;;
20014;SDS011;61787;42.022;23.078;2022-12-11T04:23:59;13.00;;;2.60;;
20014;SDS011;61787;42.022;23.078;2022-12-11T04:25:16;10.73;;;2.87;;
20014;SDS011;61787;42.022;23.078;2022-12-11T04:26:18;13.87;;;3.00;;
20014;SDS011;61787;42.022;23.078;2022-12-11T04:27:21;15.53;;;3.20;;
20014;SDS011;61787;42.022;23.078;2022-12-11T04:28:42;13.40;;;3.03;;
20014;SDS011;61787;42.022;23.078;2022-12-11T04:29:45;14.10;;;3.13;;
20014;SDS011;61787;42.022;23.078;2022-12-11T04:30:47;10.03;;;3.40;;
20014;SDS011;61787;42.022;23.078;2022-12-11T04:31:50;10.77;;;3.03;;
20014;SDS011;61787;42.022;23.078;2022-12-11T04:32:52;15.70;;;3.30;;
20014;SDS011;61787;42.022;23.078;2022-12-11T04:33:54;14.70;;;2.90;;
20014;SDS011;61787;42.022;23.078;2022-12-11T04:34:56;16.20;;;3.73;;
20014;SDS011;61787;42.022;23.078;2022-12-11T04:35:58;11.83;;;3.23;;
20014;SDS011;61787;42.022;23.078;2022-12-11T04:37:01;12.33;;;3.10;;
20014;SDS011;61787;42.022;23.078;2022-12-11T04:38:02;9.90;;;3.10;;
20014;SDS011;61787;42.022;23.078;2022-12-11T04:39:04;12.47;;;3.20;;
20014;SDS011;61787;42.022;23.078;2022-12-11T04:40:07;15.63;;;3.13;;
20014;SDS011;61787;42.022;23.078;2022-12-11T04:41:12;11.90;;;3.10;;
20014;SDS011;61787;42.022;23.078;2022-12-11T04:42:15;11.60;;;3.63;;
20014;SDS011;61787;42.022;23.078;2022-12-11T04:43:17;15.47;;;3.33;;
20014;SDS011;61787;42.022;23.078;2022-12-11T04:44:18;11.93;;;3.10;;
20014;SDS011;61787;42.022;23.078;2022-12-11T04:45:20;14.93;;;3.60;;
20014;SDS011;61787;42.022;23.078;2022-12-11T04:46:22;14.30;;;3.27;;
20014;SDS011;61787;42.022;23.078;2022-12-11T04:47:24;11.60;;;3.40;;
20014;SDS011;61787;42.022;23.078;2022-12-11T04:48:26;15.77;;;3.47;;
20014;SDS011;61787;42.022;23.078;2022-12-11T04:49:27;15.23;;;3.57;;
20014;SDS011;61787;42.022;23.078;2022-12-11T04:50:29;10.17;;;2.73;;
20014;SDS011;61787;42.022;23.078;2022-12-11T04:51:30;16.50;;;3.20;;
20014;SDS011;61787;42.022;23.078;2022-12-11T04:52:32;12.73;;;3.57;;
20014;SDS011;61787;42.022;23.078;2022-12-11T04:53:34;14.10;;;3.20;;
20014;SDS011;61787;42.022;23.078;2022-12-11T04:54:36;19.87;;;3.67;;
20014;SDS011;61787;42.022;23.078;2022-12-11T04:55:38;15.80;;;3.60;;
20014;SDS011;61787;42.022;23.078;2022-12-11T04:56:40;13.37;;;3.60;;
20014;SDS011;61787;42.022;23.078;2022-12-11T04:57:41;14.90;;;3.40;;
20014;SDS011;61787;42.022;23.078;2022-12-11T04:58:43;15.27;;;3.50;;
20014;SDS011;61787;42.022;23.078;2022-12-11T04:59:46;17.67;;;3.47;;
20014;SDS011;61787;42.022;23.078;2022-12-11T05:00:48;16.13;;;3.73;;
20014;SDS011;61787;42.022;23.078;2022-12-11T05:01:49;14.07;;;3.60;;
20014;SDS011;61787;42.022;23.078;2022-12-11T05:02:51;13.70;;;2.67;;
20014;SDS011;61787;42.022;23.078;2022-12-11T05:03:52;15.03;;;3.00;;
20014;SDS011;61787;42.022;23.078;2022-12-11T05:04:54;14.07;;;3.50;;
20014;SDS011;61787;42.022;23.078;2022-12-11T05:05:55;9.97;;;2.93;;
20014;SDS011;61787;42.022;23.078;2022-12-11T05:06:57;11.23;;;3.83;;
20014;SDS011;61787;42.022;23.078;2022-12-11T05:07:59;11.90;;;3.10;;
20014;SDS011;61787;42.022;23.078;2022-12-11T05:09:01;10.77;;;3.03;;
20014;SDS011;61787;42.022;23.078;2022-12-11T05:10:03;14.50;;;3.73;;
20014;SDS011;61787;42.022;23.078;2022-12-11T05:11:07;13.27;;;3.50;;
20014;SDS011;61787;42.022;23.078;2022-12-11T05:12:10;14.57;;;3.40;;
20014;SDS011;61787;42.022;23.078;2022-12-11T05:13:11;17.13;;;4.00;;
20014;SDS011;61787;42.022;23.078;2022-12-11T05:14:13;18.47;;;3.63;;
20014;SDS011;61787;42.022;23.078;2022-12-11T05:15:15;13.30;;;3.37;;
20014;SDS011;61787;42.022;23.078;2022-12-11T05:16:16;16.90;;;3.90;;
20014;SDS011;61787;42.022;23.078;2022-12-11T05:17:19;13.83;;;3.50;;
20014;SDS011;61787;42.022;23.078;2022-12-11T05:18:21;12.80;;;3.00;;
20014;SDS011;61787;42.022;23.078;2022-12-11T05:19:23;17.87;;;3.63;;
20014;SDS011;61787;42.022;23.078;2022-12-11T05:20:25;15.07;;;2.87;;
20014;SDS011;61787;42.022;23.078;2022-12-11T05:21:27;13.93;;;3.43;;
20014;SDS011;61787;42.022;23.078;2022-12-11T05:22:35;16.20;;;3.23;;
20014;SDS011;61787;42.022;23.078;2022-12-11T05:23:38;14.47;;;3.27;;
20014;SDS011;61787;42.022;23.078;2022-12-11T05:24:40;18.37;;;3.63;;
20014;SDS011;61787;42.022;23.078;2022-12-11T05:25:42;17.13;;;3.53;;
20014;SDS011;61787;42.022;23.078;2022-12-11T05:26:51;19.80;;;3.53;;
20014;SDS011;61787;42.022;23.078;2022-12-11T05:27:52;13.20;;;3.33;;
20014;SDS011;61787;42.022;23.078;2022-12-11T05:28:54;13.80;;;3.20;;
20014;SDS011;61787;42.022;23.078;2022-12-11T05:29:56;15.67;;;3.20;;
20014;SDS011;61787;42.022;23.078;2022-12-11T05:31:03;11.73;;;3.07;;
20014;SDS011;61787;42.022;23.078;2022-12-11T05:32:09;16.67;;;3.33;;
20014;SDS011;61787;42.022;23.078;2022-12-11T05:33:10;12.53;;;3.03;;
20014;SDS011;61787;42.022;23.078;2022-12-11T05:34:12;14.80;;;3.03;;
20014;SDS011;61787;42.022;23.078;2022-12-11T05:35:15;9.80;;;2.90;;
20014;SDS011;61787;42.022;23.078;2022-12-11T05:36:18;13.63;;;3.50;;
20014;SDS011;61787;42.022;23.078;2022-12-11T05:37:20;10.87;;;3.03;;
20014;SDS011;61787;42.022;23.078;2022-12-11T05:38:22;13.43;;;3.33;;
20014;SDS011;61787;42.022;23.078;2022-12-11T05:39:24;11.47;;;2.90;;
20014;SDS011;61787;42.022;23.078;2022-12-11T05:40:25;14.27;;;3.50;;
20014;SDS011;61787;42.022;23.078;2022-12-11T05:41:28;16.30;;;3.63;;
20014;SDS011;61787;42.022;23.078;2022-12-11T05:42:32;14.93;;;3.57;;
20014;SDS011;61787;42.022;23.078;2022-12-11T05:43:34;17.17;;;4.00;;
20014;SDS011;61787;42.022;23.078;2022-12-11T05:44:36;17.17;;;3.77;;
20014;SDS011;61787;42.022;23.078;2022-12-11T05:45:37;13.13;;;3.10;;
20014;SDS011;61787;42.022;23.078;2022-12-11T05:46:39;13.57;;;3.37;;
20014;SDS011;61787;42.022;23.078;2022-12-11T05:47:41;13.37;;;2.73;;
20014;SDS011;61787;42.022;23.078;2022-12-11T05:48:43;13.70;;;3.13;;
20014;SDS011;61787;42.022;23.078;2022-12-11T05:49:46;16.00;;;3.23;;
20014;SDS011;61787;42.022;23.078;2022-12-11T05:50:57;11.60;;;3.13;;
20014;SDS011;61787;42.022;23.078;2022-12-11T05:52:00;12.73;;;3.40;;
20014;SDS011;61787;42.022;23.078;2022-12-11T05:53:01;11.17;;;3.63;;
20014;SDS011;61787;42.022;23.078;2022-12-11T05:54:04;10.10;;;3.70;;
20014;SDS011;61787;42.022;23.078;2022-12-11T05:55:06;15.80;;;3.57;;
20014;SDS011;61787;42.022;23.078;2022-12-11T05:56:11;14.27;;;3.70;;
20014;SDS011;61787;42.022;23.078;2022-12-11T05:57:17;12.57;;;3.13;;
20014;SDS011;61787;42.022;23.078;2022-12-11T05:58:19;12.93;;;3.13;;
20014;SDS011;61787;42.022;23.078;2022-12-11T05:59:21;14.40;;;3.57;;
20014;SDS011;61787;42.022;23.078;2022-12-11T06:00:23;15.07;;;3.93;;
20014;SDS011;61787;42.022;23.078;2022-12-11T06:01:25;15.87;;;3.23;;
20014;SDS011;61787;42.022;23.078;2022-12-11T06:02:34;9.43;;;2.43;;
20014;SDS011;61787;42.022;23.078;2022-12-11T06:03:36;7.97;;;2.40;;
20014;SDS011;61787;42.022;23.078;2022-12-11T06:04:38;13.20;;;4.00;;
20014;SDS011;61787;42.022;23.078;2022-12-11T06:05:40;11.63;;;3.27;;
20014;SDS011;61787;42.022;23.078;2022-12-11T06:06:42;8.97;;;2.77;;
20014;SDS011;61787;42.022;23.078;2022-12-11T06:07:44;14.50;;;2.80;;
20014;SDS011;61787;42.022;23.078;2022-12-11T06:08:48;12.23;;;2.77;;
20014;SDS011;61787;42.022;23.078;2022-12-11T06:09:51;17.97;;;3.07;;
20014;SDS011;61787;42.022;23.078;2022-12-11T06:10:52;11.10;;;3.17;;
20014;SDS011;61787;42.022;23.078;2022-12-11T06:11:54;12.03;;;3.13;;
20014;SDS011;61787;42.022;23.078;2022-12-11T06:12:55;13.23;;;3.57;;
20014;SDS011;61787;42.022;23.078;2022-12-11T06:13:57;12.50;;;3.43;;
20014;SDS011;61787;42.022;23.078;2022-12-11T06:15:00;16.83;;;3.97;;
20014;SDS011;61787;42.022;23.078;2022-12-11T06:16:02;12.47;;;3.50;;
20014;SDS011;61787;42.022;23.078;2022-12-11T06:17:06;8.33;;;2.50;;
20014;SDS011;61787;42.022;23.078;2022-12-11T06:18:07;12.33;;;2.63;;
20014;SDS011;61787;42.022;23.078;2022-12-11T06:19:15;14.87;;;3.00;;
20014;SDS011;61787;42.022;23.078;2022-12-11T06:20:18;12.93;;;2.87;;
20014;SDS011;61787;42.022;23.078;2022-12-11T06:21:21;9.93;;;2.70;;
20014;SDS011;61787;42.022;23.078;2022-12-11T06:22:28;10.13;;;3.07;;
20014;SDS011;61787;42.022;23.078;2022-12-11T06:23:30;15.90;;;3.73;;
20014;SDS011;61787;42.022;23.078;2022-12-11T06:24:32;13.60;;;3.87;;
20014;SDS011;61787;42.022;23.078;2022-12-11T06:25:33;14.73;;;3.67;;
20014;SDS011;61787;42.022;23.078;2022-12-11T06:26:35;13.60;;;3.13;;
20014;SDS011;61787;42.022;23.078;2022-12-11T06:27:37;12.40;;;2.97;;
20014;SDS011;61787;42.022;23.078;2022-12-11T06:28:38;15.57;;;3.97;;
20014;SDS011;61787;42.022;23.078;2022-12-11T06:29:40;10.10;;;3.47;;
20014;SDS011;61787;42.022;23.078;2022-12-11T06:30:41;10.03;;;2.80;;
20014;SDS011;61787;42.022;23.078;2022-12-11T06:31:43;12.43;;;3.30;;
20014;SDS011;61787;42.022;23.078;2022-12-11T06:32:45;15.03;;;3.27;;
20014;SDS011;61787;42.022;23.078;2022-12-11T06:33:46;11.33;;;2.67;;
20014;SDS011;61787;42.022;23.078;2022-12-11T06:34:48;15.07;;;3.27;;
20014;SDS011;61787;42.022;23.078;2022-12-11T06:35:50;12.33;;;3.17;;